Time;durP1;ratioP1;P1;durP2;ratioP2;P2;SDS_P1;SDS_P2;PMS_P1;PMS_P2;Temp;Humidity;BMP_temperature;BMP_pressure;BME280_temperature;BME280_humidity;BME280_pressure;Samples;Min_cycle;Max_cycle;Signal;HPM_P1;HPM_P2
2023/04/03 00:01:16;;;;;;;4.28;2.53;;;;;;;10.42;45.29;99464.94;4419853;32;34704;-63
2023/04/03 00:03:45;;;;;;;6.18;3.58;;;;;;;10.36;44.92;99465.44;4430540;32;34915;-65
2023/04/03 00:06:13;;;;;;;2.75;1.95;;;;;;;10.94;43.89;99459.94;4422775;32;33754;-63
2023/04/03 00:08:40;;;;;;;2.62;1.35;;;;;;;10.42;45.23;99456.94;4418484;32;33566;-62
2023/04/03 00:11:09;;;;;;;7.95;2.42;;;;;;;10.29;44.87;99458.03;4419726;32;33550;-61
2023/04/03 00:13:37;;;;;;;1.25;1.00;;;;;;;9.04;48.65;99464.69;4419265;32;33749;-61
2023/04/03 00:16:06;;;;;;;2.72;1.70;;;;;;;10.10;45.63;99464.75;4413965;32;33020;-63
2023/04/03 00:18:34;;;;;;;1.55;1.45;;;;;;;9.91;45.63;99462.63;4419507;32;32328;-63
2023/04/03 00:21:02;;;;;;;2.15;1.37;;;;;;;10.16;45.76;99472.31;4418728;32;33676;-62
2023/04/03 00:23:30;;;;;;;3.58;1.95;;;;;;;10.68;44.46;99475.44;4419064;32;34139;-62
2023/04/03 00:25:58;;;;;;;5.00;2.95;;;;;;;10.72;44.69;99482.22;4417857;32;34931;-62
2023/04/03 00:28:26;;;;;;;2.50;1.48;;;;;;;10.05;46.67;99477.66;4418683;32;33761;-63
2023/04/03 00:30:54;;;;;;;3.90;2.15;;;;;;;10.25;45.47;99476.94;4419471;32;33617;-62
2023/04/03 00:33:21;;;;;;;2.40;2.20;;;;;;;10.55;44.02;99474.69;4417432;32;33738;-63
2023/04/03 00:35:49;;;;;;;3.97;2.17;;;;;;;10.31;45.21;99485.50;4413974;32;33714;-62
2023/04/03 00:38:18;;;;;;;4.60;2.78;;;;;;;10.20;44.71;99481.78;4419145;32;33503;-62
2023/04/03 00:40:48;;;;;;;1.55;1.30;;;;;;;10.69;44.02;99482.50;4415978;32;33675;-62
2023/04/03 00:43:27;;;;;;;0.82;0.82;;;;;;;10.26;44.30;99480.50;4422434;32;33789;-62
2023/04/03 00:45:56;;;;;;;3.33;1.67;;;;;;;10.03;45.26;99480.41;4418586;32;33825;-64
2023/04/03 00:48:40;;;;;;;2.35;1.67;;;;;;;9.40;47.05;99478.09;4412507;32;34802;-63
2023/04/03 00:51:14;;;;;;;1.15;1.05;;;;;;;9.64;46.09;99481.63;4413273;32;33806;-61
2023/04/03 00:53:46;;;;;;;2.28;1.52;;;;;;;9.84;45.29;99488.16;4418431;32;33781;-61
2023/04/03 00:56:17;;;;;;;4.30;1.62;;;;;;;9.25;47.12;99493.47;4416381;32;33704;-62
2023/04/03 00:59:21;;;;;;;1.58;1.40;;;;;;;9.72;45.51;99486.38;4419308;32;32693;-61
2023/04/03 01:01:50;;;;;;;4.05;2.58;;;;;;;9.71;45.83;99495.38;4382729;32;34921;-61
2023/04/03 01:04:36;;;;;;;1.85;1.27;;;;;;;9.75;46.03;99497.69;4420255;32;34560;-61
2023/04/03 01:07:08;;;;;;;1.02;1.02;;;;;;;9.59;47.02;99489.13;4411733;32;34046;-63
2023/04/03 01:09:36;;;;;;;1.23;1.10;;;;;;;10.13;44.87;99490.41;4420877;32;33669;-62
2023/04/03 01:12:22;;;;;;;1.73;1.48;;;;;;;9.25;46.62;99499.66;4412239;32;33630;-62
2023/04/03 01:14:55;;;;;;;2.25;1.77;;;;;;;9.94;45.50;99491.81;4416314;32;33954;-62
2023/04/03 01:17:37;;;;;;;1.02;0.77;;;;;;;9.44;46.92;99490.28;4418608;32;34892;-65
2023/04/03 01:20:11;;;;;;;0.80;0.70;;;;;;;9.82;45.74;99490.06;4419235;32;32613;-62
2023/04/03 01:23:05;;;;;;;2.20;1.75;;;;;;;9.67;47.23;99491.25;4421822;32;34258;-62
2023/04/03 01:25:34;;;;;;;2.50;2.15;;;;;;;9.22;46.30;99499.88;4421137;32;33828;-63
2023/04/03 01:28:03;;;;;;;3.00;2.35;;;;;;;9.96;45.14;99483.69;4422117;32;34416;-63
2023/04/03 01:30:35;;;;;;;3.25;2.00;;;;;;;9.64;45.86;99497.66;4417674;32;32457;-62
2023/04/03 01:33:03;;;;;;;5.47;1.95;;;;;;;9.40;46.25;99502.16;4416773;32;34097;-61
2023/04/03 01:35:31;;;;;;;1.08;0.98;;;;;;;9.26;47.41;99496.00;4419065;32;34080;-62
2023/04/03 01:37:58;;;;;;;0.80;0.70;;;;;;;9.56;46.75;99492.88;4417600;32;33652;-62
2023/04/03 01:40:26;;;;;;;3.40;2.03;;;;;;;9.56;45.70;99500.88;4419131;32;33092;-62
2023/04/03 01:42:54;;;;;;;2.33;1.87;;;;;;;10.18;44.80;99496.28;4419201;32;32432;-62
2023/04/03 01:45:21;;;;;;;1.30;1.20;;;;;;;10.06;45.17;99498.06;4418622;32;33703;-62
2023/04/03 01:47:49;;;;;;;0.75;0.75;;;;;;;9.40;46.72;99500.31;4417880;32;33882;-64
2023/04/03 01:50:17;;;;;;;1.45;1.05;;;;;;;10.15;44.12;99513.41;4418836;32;33555;-61
2023/04/03 01:52:45;;;;;;;0.88;0.77;;;;;;;9.84;46.44;99506.84;4418130;32;32821;-62
2023/04/03 01:55:12;;;;;;;0.85;0.85;;;;;;;10.45;43.78;99509.34;4418543;32;33967;-62
2023/04/03 01:57:40;;;;;;;1.15;1.05;;;;;;;10.55;43.44;99502.31;4418927;32;34044;-62
2023/04/03 02:00:09;;;;;;;0.80;0.80;;;;;;;10.34;44.99;99512.03;4418534;32;32525;-65
2023/04/03 02:02:39;;;;;;;0.70;0.70;;;;;;;10.41;43.20;99513.25;4425393;32;33631;-62
2023/04/03 02:05:07;;;;;;;1.05;0.95;;;;;;;10.41;43.86;99511.41;4418537;32;34149;-64
2023/04/03 02:07:35;;;;;;;1.30;1.08;;;;;;;10.30;43.60;99505.19;4418387;32;33441;-62
2023/04/03 02:10:03;;;;;;;1.27;1.05;;;;;;;9.73;44.57;99509.50;4418393;32;32797;-63
2023/04/03 02:12:30;;;;;;;1.60;1.05;;;;;;;10.00;44.79;99512.75;4419359;32;33183;-62
2023/04/03 02:14:58;;;;;;;0.88;0.88;;;;;;;9.51;45.61;99510.25;4420336;32;35714;-62
2023/04/03 02:17:26;;;;;;;0.82;0.80;;;;;;;9.75;46.01;99511.06;4419004;32;34200;-64
2023/04/03 02:19:54;;;;;;;1.37;1.25;;;;;;;9.18;45.95;99517.09;4407777;32;34449;-61
2023/04/03 02:22:23;;;;;;;1.55;1.20;;;;;;;9.14;47.31;99522.75;4415399;32;34045;-63
2023/04/03 02:24:51;;;;;;;2.65;1.40;;;;;;;9.00;46.80;99511.25;4415038;32;32756;-63
2023/04/03 02:27:20;;;;;;;1.10;0.98;;;;;;;9.75;45.40;99504.87;4417242;32;35909;-63
2023/04/03 02:29:48;;;;;;;1.85;1.67;;;;;;;10.09;44.54;99516.53;4423004;32;33356;-65
2023/04/03 02:32:15;;;;;;;3.00;2.15;;;;;;;9.77;46.79;99521.66;4426289;32;33773;-64
2023/04/03 02:34:43;;;;;;;1.00;0.95;;;;;;;9.47;47.23;99522.09;4417684;32;33667;-64
2023/04/03 02:37:12;;;;;;;1.45;1.25;;;;;;;9.70;46.11;99515.06;4419534;32;35111;-63
2023/04/03 02:39:40;;;;;;;1.05;0.98;;;;;;;8.88;47.88;99520.13;4412065;32;33355;-68
2023/04/03 02:42:07;;;;;;;1.12;1.02;;;;;;;9.65;46.53;99515.41;4410359;32;33508;-62
2023/04/03 02:44:35;;;;;;;2.10;1.60;;;;;;;9.96;45.83;99516.62;4416188;32;35116;-62
2023/04/03 02:47:03;;;;;;;1.67;1.23;;;;;;;9.19;46.80;99523.28;4420411;32;34041;-62
2023/04/03 02:49:31;;;;;;;1.05;0.95;;;;;;;9.47;47.28;99516.75;4416157;32;33733;-64
2023/04/03 02:51:58;;;;;;;1.10;1.00;;;;;;;9.78;45.70;99520.69;4419021;32;34189;-63
2023/04/03 02:54:28;;;;;;;2.08;1.42;;;;;;;10.19;45.85;99527.38;4414151;32;35104;-69
2023/04/03 02:56:57;;;;;;;1.67;1.58;;;;;;;9.43;47.04;99520.63;4418407;32;34124;-64
2023/04/03 02:59:25;;;;;;;2.15;1.52;;;;;;;9.50;46.45;99521.87;4415728;32;33271;-63
2023/04/03 03:01:53;;;;;;;1.02;1.02;;;;;;;9.54;45.19;99520.69;4419940;32;32608;-64
2023/04/03 03:04:20;;;;;;;2.08;1.37;;;;;;;9.52;45.64;99528.81;4416456;32;34918;-64
2023/04/03 03:06:48;;;;;;;1.75;1.15;;;;;;;9.25;46.93;99514.84;4418691;32;35035;-64
2023/04/03 03:09:15;;;;;;;3.92;1.87;;;;;;;9.66;45.77;99525.12;4417501;32;33466;-65
2023/04/03 03:11:43;;;;;;;0.70;0.70;;;;;;;9.53;46.92;99529.66;4420081;32;33720;-65
2023/04/03 03:14:10;;;;;;;0.70;0.70;;;;;;;9.45;46.89;99532.91;4417579;32;34799;-63
2023/04/03 03:16:38;;;;;;;1.48;1.33;;;;;;;9.12;47.39;99532.69;4418467;32;33898;-61
2023/04/03 03:19:06;;;;;;;2.00;1.60;;;;;;;9.28;47.10;99543.97;4420997;32;33690;-61
2023/04/03 03:21:34;;;;;;;1.27;1.17;;;;;;;10.09;44.54;99539.75;4418976;32;34641;-65
2023/04/03 03:24:01;;;;;;;2.55;1.85;;;;;;;10.10;44.24;99539.62;4417838;32;34659;-63
2023/04/03 03:26:29;;;;;;;2.37;1.48;;;;;;;10.11;44.29;99546.72;4419968;32;34049;-64
2023/04/03 03:28:57;;;;;;;8.43;1.80;;;;;;;10.24;44.14;99538.56;4416736;32;33431;-65
2023/04/03 03:31:25;;;;;;;3.72;2.03;;;;;;;9.58;45.97;99530.19;4418772;32;33910;-61
2023/04/03 03:33:53;;;;;;;2.20;1.58;;;;;;;10.12;45.14;99534.19;4417291;32;34119;-63
2023/04/03 03:36:21;;;;;;;1.90;1.42;;;;;;;9.60;46.15;99532.72;4425316;32;34081;-63
2023/04/03 03:38:49;;;;;;;1.17;1.08;;;;;;;9.41;46.83;99519.91;4420188;32;33416;-62
2023/04/03 03:41:16;;;;;;;2.17;1.73;;;;;;;9.66;45.80;99530.47;4417975;32;33414;-64
2023/04/03 03:43:44;;;;;;;1.87;1.37;;;;;;;9.62;46.39;99526.31;4418495;32;34965;-63
2023/04/03 03:46:12;;;;;;;0.77;0.77;;;;;;;9.59;46.04;99531.03;4418403;32;34267;-63
2023/04/03 03:48:40;;;;;;;2.78;1.67;;;;;;;9.28;47.27;99520.78;4416396;32;33894;-62
2023/04/03 03:51:08;;;;;;;3.33;1.10;;;;;;;8.90;47.93;99523.56;4417569;32;34983;-65
2023/04/03 03:53:36;;;;;;;1.52;1.42;;;;;;;9.49;47.21;99522.84;4417669;32;35275;-63
2023/04/03 03:56:05;;;;;;;2.08;1.80;;;;;;;9.21;46.79;99519.53;4415884;32;34253;-64
2023/04/03 03:58:34;;;;;;;1.30;1.20;;;;;;;8.99;48.22;99522.03;4405847;32;91406;-63
2023/04/03 04:01:03;;;;;;;0.90;0.82;;;;;;;9.22;47.59;99523.06;4416713;32;35043;-66
2023/04/03 04:03:32;;;;;;;2.90;1.65;;;;;;;8.70;48.42;99526.78;4416680;32;34851;-64
2023/04/03 04:05:59;;;;;;;0.73;0.73;;;;;;;8.96;48.54;99524.94;4420237;32;34124;-63
2023/04/03 04:08:27;;;;;;;1.80;1.15;;;;;;;8.70;49.01;99524.09;4416481;32;33734;-63
2023/04/03 04:10:55;;;;;;;1.45;1.35;;;;;;;9.31;47.70;99519.72;4409263;32;34312;-64
2023/04/03 04:13:22;;;;;;;0.70;0.70;;;;;;;9.18;47.71;99530.44;4415888;32;32138;-64
2023/04/03 04:15:50;;;;;;;1.45;1.35;;;;;;;8.85;47.25;99518.53;4417605;32;34204;-63
2023/04/03 04:18:21;;;;;;;0.60;0.60;;;;;;;8.66;50.09;99530.63;4418149;32;34559;-63
2023/04/03 04:20:48;;;;;;;0.93;0.85;;;;;;;9.34;47.05;99532.81;4417154;32;34654;-63
2023/04/03 04:23:17;;;;;;;1.17;1.02;;;;;;;9.65;46.13;99526.09;4418390;32;34052;-64
2023/04/03 04:25:47;;;;;;;1.05;0.98;;;;;;;9.63;46.72;99536.06;4422238;32;33705;-63
2023/04/03 04:28:15;;;;;;;3.12;1.83;;;;;;;8.75;48.57;99533.50;4418454;32;33336;-63
2023/04/03 04:30:43;;;;;;;1.52;0.88;;;;;;;9.35;46.62;99536.37;4417005;32;33880;-63
2023/04/03 04:33:13;;;;;;;1.37;1.27;;;;;;;9.10;48.30;99535.47;4422465;32;34970;-64
2023/04/03 04:35:43;;;;;;;1.20;1.10;;;;;;;9.06;47.10;99544.69;4418370;32;35085;-66
2023/04/03 04:38:11;;;;;;;1.83;1.70;;;;;;;8.86;47.72;99538.09;4421201;32;32793;-64
2023/04/03 04:40:39;;;;;;;2.25;1.65;;;;;;;8.99;47.65;99540.72;4411907;32;33560;-64
2023/04/03 04:43:07;;;;;;;3.92;2.65;;;;;;;9.39;46.48;99545.88;4415206;32;35460;-63
2023/04/03 04:45:35;;;;;;;1.35;1.20;;;;;;;9.60;45.97;99543.41;4411622;32;33631;-63
2023/04/03 04:48:04;;;;;;;1.23;1.15;;;;;;;9.05;47.43;99550.97;4421862;32;34449;-60
2023/04/03 04:50:31;;;;;;;1.80;1.42;;;;;;;9.28;47.53;99552.84;4417806;32;33532;-62
2023/04/03 04:52:59;;;;;;;1.05;0.95;;;;;;;9.59;46.84;99552.41;4420003;32;35289;-63
2023/04/03 04:55:26;;;;;;;1.02;0.88;;;;;;;9.90;45.61;99546.50;4414523;32;32571;-62
2023/04/03 04:57:55;;;;;;;2.58;1.70;;;;;;;9.57;46.46;99552.53;4410971;32;34172;-63
2023/04/03 05:00:23;;;;;;;1.73;1.48;;;;;;;9.82;46.20;99566.72;4407549;32;33629;-63
2023/04/03 05:02:51;;;;;;;0.65;0.62;;;;;;;9.50;47.38;99556.59;4412051;32;34904;-63
2023/04/03 05:05:19;;;;;;;1.73;1.15;;;;;;;9.28;48.64;99552.84;4409297;32;32549;-61
2023/04/03 05:07:46;;;;;;;1.02;0.90;;;;;;;9.90;47.82;99559.87;4411401;32;34597;-62
2023/04/03 05:10:14;;;;;;;1.50;1.40;;;;;;;9.96;46.61;99558.56;4412220;32;32567;-62
2023/04/03 05:12:42;;;;;;;1.48;1.10;;;;;;;10.03;46.45;99552.63;4412299;32;35165;-61
2023/04/03 05:15:10;;;;;;;1.85;1.65;;;;;;;10.00;45.80;99563.53;4411297;32;33909;-64
2023/04/03 05:17:37;;;;;;;1.50;1.23;;;;;;;9.68;47.32;99563.28;4411113;32;33504;-63
2023/04/03 05:20:06;;;;;;;1.25;1.15;;;;;;;10.27;44.87;99562.44;4409658;32;34979;-62
2023/04/03 05:22:34;;;;;;;0.90;0.80;;;;;;;10.16;45.22;99559.72;4411513;32;32145;-60
2023/04/03 05:25:03;;;;;;;1.27;1.10;;;;;;;10.11;45.48;99562.75;4412855;32;34199;-62
2023/04/03 05:27:31;;;;;;;1.92;1.52;;;;;;;10.48;45.01;99563.47;4411025;32;33603;-63
2023/04/03 05:29:59;;;;;;;4.28;1.52;;;;;;;11.04;43.98;99568.03;4410213;32;33887;-62
2023/04/03 05:32:27;;;;;;;2.28;1.87;;;;;;;11.59;42.19;99565.44;4408435;32;35256;-61
2023/04/03 05:34:56;;;;;;;2.55;1.42;;;;;;;11.79;40.83;99556.59;4409835;32;34246;-63
2023/04/03 05:37:27;;;;;;;2.53;1.40;;;;;;;11.95;40.84;99552.66;4414273;32;34477;-61
2023/04/03 05:39:55;;;;;;;1.85;1.15;;;;;;;11.46;42.06;99552.19;4412809;32;33603;-64
2023/04/03 05:42:23;;;;;;;1.27;1.15;;;;;;;10.78;43.22;99555.84;4415178;32;32854;-62
2023/04/03 05:44:51;;;;;;;2.12;1.70;;;;;;;11.09;42.48;99555.12;4407975;32;35264;-61
2023/04/03 05:47:19;;;;;;;1.17;1.05;;;;;;;10.82;42.22;99558.19;4415325;32;32853;-62
2023/04/03 05:49:46;;;;;;;2.08;1.60;;;;;;;10.36;43.42;99561.75;4407544;32;33827;-63
2023/04/03 05:52:25;;;;;;;1.37;1.27;;;;;;;10.29;43.69;99559.66;4411342;32;32367;-61
2023/04/03 05:54:53;;;;;;;1.62;1.52;;;;;;;9.65;45.40;99571.50;4408977;32;33904;-61
2023/04/03 05:57:22;;;;;;;3.00;2.15;;;;;;;10.15;44.75;99558.03;4411254;32;33381;-63
2023/04/03 05:59:50;;;;;;;1.50;1.40;;;;;;;10.23;44.23;99567.16;4409587;32;33664;-65
2023/04/03 06:02:20;;;;;;;0.80;0.80;;;;;;;9.21;47.07;99558.72;4407304;32;33556;-62
2023/04/03 06:04:50;;;;;;;1.20;1.10;;;;;;;9.78;45.70;99568.78;4409215;32;34177;-62
2023/04/03 06:07:22;;;;;;;1.45;1.20;;;;;;;10.13;45.93;99563.47;4411091;32;34489;-61
2023/04/03 06:09:51;;;;;;;1.75;1.33;;;;;;;9.33;47.66;99565.84;4411656;32;32846;-61
2023/04/03 06:12:19;;;;;;;0.90;0.90;;;;;;;9.39;47.16;99572.56;4409817;32;32717;-61
2023/04/03 06:14:47;;;;;;;2.58;1.45;;;;;;;9.07;47.74;99576.59;4409374;32;33760;-63
2023/04/03 06:17:17;;;;;;;2.10;1.62;;;;;;;9.31;47.70;99574.00;4409274;32;33477;-61
2023/04/03 06:19:45;;;;;;;1.67;1.10;;;;;;;9.83;46.34;99574.66;4416408;32;34240;-66
2023/04/03 06:22:14;;;;;;;2.65;1.35;;;;;;;9.80;47.19;99567.72;4410775;32;33975;-61
2023/04/03 06:24:43;;;;;;;1.20;1.10;;;;;;;9.41;47.85;99573.34;4410875;32;33957;-61
2023/04/03 06:27:11;;;;;;;1.45;1.30;;;;;;;9.85;46.68;99572.69;4410040;32;33546;-62
2023/04/03 06:29:38;;;;;;;1.55;1.12;;;;;;;10.53;45.72;99562.25;4409800;32;34598;-61
2023/04/03 06:32:06;;;;;;;1.85;1.20;;;;;;;10.26;45.56;99560.75;4409377;32;34101;-61
2023/04/03 06:34:34;;;;;;;3.03;2.25;;;;;;;10.73;44.38;99575.81;4408840;32;32964;-61
2023/04/03 06:37:01;;;;;;;0.73;0.73;;;;;;;10.41;44.75;99566.75;4407854;32;32456;-65
2023/04/03 06:39:29;;;;;;;2.30;1.42;;;;;;;10.17;45.71;99564.09;4410565;32;33788;-63
2023/04/03 06:41:57;;;;;;;5.18;2.22;;;;;;;10.69;43.46;99562.81;4411879;32;33912;-63
2023/04/03 06:44:25;;;;;;;3.17;1.45;;;;;;;10.55;44.00;99579.91;4408090;32;35029;-61
2023/04/03 06:46:54;;;;;;;1.45;1.35;;;;;;;10.60;45.15;99579.56;4409895;32;33535;-61
2023/04/03 06:49:21;;;;;;;1.95;1.50;;;;;;;11.25;43.42;99589.59;4406610;32;33610;-61
2023/04/03 06:51:49;;;;;;;1.00;0.95;;;;;;;10.95;43.19;99592.88;4409302;32;35206;-64
2023/04/03 06:54:18;;;;;;;3.62;1.58;;;;;;;11.18;42.82;99596.41;4410215;32;32936;-63
2023/04/03 06:56:45;;;;;;;0.82;0.82;;;;;;;11.31;43.18;99596.28;4417769;32;33515;-64
2023/04/03 06:59:14;;;;;;;2.08;0.93;;;;;;;11.19;42.56;99598.09;4403968;32;35089;-62
2023/04/03 07:01:42;;;;;;;2.72;1.67;;;;;;;10.60;44.35;99603.66;4413887;32;33928;-64
2023/04/03 07:04:10;;;;;;;0.75;0.75;;;;;;;10.66;43.55;99598.69;4418013;32;34721;-62
2023/04/03 07:06:37;;;;;;;3.17;0.80;;;;;;;10.81;43.86;99599.28;4412638;32;32322;-63
2023/04/03 07:09:05;;;;;;;1.33;0.95;;;;;;;10.61;43.24;99603.53;4407127;32;34445;-61
2023/04/03 07:11:32;;;;;;;0.68;0.68;;;;;;;11.24;41.44;99598.59;4407267;32;33982;-64
2023/04/03 07:14:00;;;;;;;1.50;1.35;;;;;;;11.23;42.67;99606.75;4409182;32;33878;-64
2023/04/03 07:16:30;;;;;;;0.93;0.93;;;;;;;10.84;43.98;99604.41;4407012;32;32632;-64
2023/04/03 07:18:58;;;;;;;2.03;1.25;;;;;;;10.85;43.28;99611.50;4410545;32;33003;-62
2023/04/03 07:21:26;;;;;;;2.58;1.05;;;;;;;11.02;42.32;99610.16;4405984;32;34019;-63
2023/04/03 07:23:54;;;;;;;2.22;1.35;;;;;;;11.81;41.08;99608.28;4410189;32;34768;-63
2023/04/03 07:26:22;;;;;;;0.93;0.85;;;;;;;11.31;42.37;99596.28;4408390;32;33470;-62
2023/04/03 07:28:49;;;;;;;1.30;1.05;;;;;;;11.62;40.89;99605.34;4410819;32;33611;-62
2023/04/03 07:31:18;;;;;;;1.85;1.30;;;;;;;11.70;41.36;99597.56;4406834;32;33592;-62
2023/04/03 07:33:46;;;;;;;1.35;1.20;;;;;;;12.24;40.98;99607.41;4407786;32;34870;-62
2023/04/03 07:36:16;;;;;;;0.50;0.50;;;;;;;11.62;41.19;99605.34;4408245;32;32286;-65
2023/04/03 07:38:44;;;;;;;2.10;1.37;;;;;;;11.64;40.87;99609.63;4410377;32;33806;-62
2023/04/03 07:41:15;;;;;;;2.37;1.65;;;;;;;11.59;40.68;99611.00;4411585;32;34005;-62
2023/04/03 07:43:42;;;;;;;1.15;1.02;;;;;;;11.80;40.64;99613.75;4406438;32;33537;-62
2023/04/03 07:46:10;;;;;;;0.57;0.57;;;;;;;12.05;39.90;99607.25;4408734;32;33573;-62
2023/04/03 07:48:38;;;;;;;1.45;1.15;;;;;;;10.96;42.08;99618.69;4408411;32;34242;-64
2023/04/03 07:51:05;;;;;;;1.25;1.02;;;;;;;11.88;40.21;99620.22;4409912;32;34929;-61
2023/04/03 07:53:33;;;;;;;1.80;1.17;;;;;;;11.67;41.22;99619.25;4406937;32;34243;-62
2023/04/03 07:56:02;;;;;;;1.65;1.50;;;;;;;12.14;41.10;99625.25;4409537;32;34466;-64
2023/04/03 07:58:30;;;;;;;2.35;1.10;;;;;;;11.33;41.29;99626.47;4407025;32;35209;-64
2023/04/03 08:00:57;;;;;;;4.18;1.62;;;;;;;11.31;42.81;99618.56;4412409;32;33759;-62
2023/04/03 08:03:25;;;;;;;4.25;1.65;;;;;;;11.91;41.07;99626.28;4410468;32;37501;-64
2023/04/03 08:05:53;;;;;;;1.45;1.10;;;;;;;11.70;41.40;99629.72;4412157;32;32104;-65
2023/04/03 08:08:22;;;;;;;2.17;0.82;;;;;;;11.92;40.46;99639.59;4411765;32;33599;-63
2023/04/03 08:10:52;;;;;;;1.08;0.95;;;;;;;12.23;39.83;99631.69;4411744;32;34084;-62
2023/04/03 08:13:20;;;;;;;1.87;0.95;;;;;;;11.72;39.61;99643.00;4412211;32;35197;-62
2023/04/03 08:15:47;;;;;;;5.30;2.40;;;;;;;12.33;36.91;99632.63;4411308;32;34345;-62
2023/04/03 08:18:16;;;;;;;1.12;1.02;;;;;;;12.21;39.69;99645.22;4411820;32;34066;-62
2023/04/03 08:20:44;;;;;;;1.23;1.08;;;;;;;12.17;38.94;99638.44;4412199;32;33774;-64
2023/04/03 08:23:12;;;;;;;1.87;1.70;;;;;;;12.42;37.67;99639.88;4412719;32;34143;-62
2023/04/03 08:25:40;;;;;;;1.98;1.12;;;;;;;12.73;37.05;99634.63;4412658;32;33656;-62
2023/04/03 08:28:09;;;;;;;1.20;1.02;;;;;;;12.54;38.93;99640.69;4412241;32;33248;-63
2023/04/03 08:30:40;;;;;;;2.67;0.88;;;;;;;12.05;39.62;99644.81;4411895;32;33937;-64
2023/04/03 08:33:09;;;;;;;2.53;1.12;;;;;;;12.70;36.45;99649.16;4412354;32;33504;-62
2023/04/03 08:35:41;;;;;;;2.03;1.52;;;;;;;12.65;36.63;99637.97;4410016;32;33388;-62
2023/04/03 08:38:09;;;;;;;1.75;1.33;;;;;;;12.18;38.28;99647.31;4414146;32;34884;-62
2023/04/03 08:40:38;;;;;;;1.55;0.90;;;;;;;12.69;37.79;99644.78;4412569;32;35542;-65
2023/04/03 08:43:26;;;;;;;1.10;0.90;;;;;;;13.33;34.88;99634.84;4410658;32;34021;-65
2023/04/03 08:45:55;;;;;;;1.33;1.05;;;;;;;13.71;35.02;99637.69;4410469;32;32346;-65
2023/04/03 08:48:27;;;;;;;0.90;0.90;;;;;;;12.55;38.71;99643.28;4410888;32;33878;-62
2023/04/03 08:50:58;;;;;;;0.50;0.50;;;;;;;12.98;36.32;99639.59;4409392;32;33778;-63
2023/04/03 08:53:33;;;;;;;0.55;0.55;;;;;;;12.79;37.67;99639.47;4412591;32;36345;-62
2023/04/03 08:56:09;;;;;;;3.22;1.05;;;;;;;13.43;36.93;99639.28;4412363;32;34772;-61
2023/04/03 08:58:58;;;;;;;1.33;1.05;;;;;;;13.74;37.10;99641.94;4412460;32;33701;-63
2023/04/03 09:01:36;;;;;;;1.75;1.27;;;;;;;13.46;35.37;99635.47;4408350;32;33785;-61
2023/04/03 09:04:10;;;;;;;1.67;0.75;;;;;;;13.55;35.87;99636.47;4411042;32;33452;-64
2023/04/03 09:06:39;;;;;;;0.98;0.77;;;;;;;13.39;35.18;99634.31;4412976;32;34074;-62
2023/04/03 09:09:16;;;;;;;2.58;1.48;;;;;;;13.77;36.53;99640.78;4414209;32;33283;-61
2023/04/03 09:11:52;;;;;;;0.88;0.75;;;;;;;13.92;35.01;99645.63;4410701;32;33944;-63
2023/04/03 09:14:34;;;;;;;1.55;0.95;;;;;;;14.11;34.28;99644.81;4413992;32;34932;-62
2023/04/03 09:17:16;;;;;;;1.00;0.77;;;;;;;12.79;35.22;99642.16;4410491;32;34493;-62
2023/04/03 09:19:49;;;;;;;1.55;0.93;;;;;;;13.33;34.20;99642.91;4404504;32;33543;-62
2023/04/03 09:22:21;;;;;;;3.12;1.77;;;;;;;13.38;34.83;99638.81;4410739;32;32847;-62
2023/04/03 09:25:02;;;;;;;1.10;0.95;;;;;;;13.76;34.20;99645.31;4414626;32;32677;-64
2023/04/03 09:27:30;;;;;;;3.62;1.05;;;;;;;14.34;33.60;99648.09;4415502;32;33653;-62
2023/04/03 09:29:58;;;;;;;2.33;1.35;;;;;;;12.87;36.35;99657.59;4412494;32;33720;-62
2023/04/03 09:32:31;;;;;;;0.47;0.47;;;;;;;12.86;36.75;99650.53;4409755;32;34049;-65
2023/04/03 09:35:15;;;;;;;1.85;1.00;;;;;;;13.02;36.16;99646.38;4410334;32;32844;-62
2023/04/03 09:37:59;;;;;;;1.87;0.60;;;;;;;13.24;35.88;99650.78;4412439;32;33686;-61
2023/04/03 09:40:34;;;;;;;0.70;0.70;;;;;;;13.44;34.62;99645.50;4415815;32;32858;-63
2023/04/03 09:43:20;;;;;;;;;;;;;;;14.14;31.51;99643.69;4413194;32;33498;-63
2023/04/03 09:45:49;;;;;;;0.57;0.57;;;;;;;13.73;33.58;99640.22;4412521;32;34498;-64
2023/04/03 09:48:19;;;;;;;0.85;0.75;;;;;;;14.03;32.57;99638.44;4411678;32;34593;-64
2023/04/03 09:50:58;;;;;;;0.40;0.40;;;;;;;14.59;33.24;99641.31;4412277;32;33486;-65
2023/04/03 09:53:30;;;;;;;0.50;0.50;;;;;;;14.95;33.23;99636.16;4411862;32;32085;-64
2023/04/03 09:55:58;;;;;;;0.40;0.40;;;;;;;15.38;30.77;99632.06;4411822;32;34834;-63
2023/04/03 09:58:30;;;;;;;4.90;0.95;;;;;;;15.17;30.51;99639.53;4409894;32;33520;-64
2023/04/03 10:01:28;;;;;;;0.95;0.68;;;;;;;15.10;30.33;99625.78;4431108;32;35200;-65
2023/04/03 10:04:05;;;;;;;0.93;0.77;;;;;;;14.78;30.18;99629.69;4408479;32;33255;-64
2023/04/03 10:06:36;;;;;;;0.85;0.60;;;;;;;14.78;30.09;99628.84;4412142;32;33349;-63
2023/04/03 10:09:12;;;;;;;0.73;0.73;;;;;;;14.54;31.23;99626.59;4411487;32;32296;-62
2023/04/03 10:12:04;;;;;;;0.75;0.68;;;;;;;15.34;31.13;99636.03;4410251;32;33579;-65
2023/04/03 10:14:58;;;;;;;1.10;0.70;;;;;;;14.78;32.22;99632.38;4410975;32;34120;-62
2023/04/03 10:18:07;;;;;;;0.43;0.40;;;;;;;14.21;31.88;99634.91;4415688;32;34276;-61
2023/04/03 10:20:52;;;;;;;1.98;1.17;;;;;;;14.32;31.28;99628.56;4349602;32;34625;-64
2023/04/03 10:23:28;;;;;;;1.00;0.70;;;;;;;14.61;31.71;99631.28;4346102;32;34624;-61
2023/04/03 10:26:02;;;;;;;1.10;1.00;;;;;;;14.70;32.04;99628.69;4385428;32;34037;-62
2023/04/03 10:28:46;;;;;;;0.98;0.60;;;;;;;14.54;32.35;99631.97;4411247;32;34309;-62
2023/04/03 10:31:40;;;;;;;0.65;0.47;;;;;;;13.98;33.26;99630.78;4409031;32;32268;-67
2023/04/03 10:34:36;;;;;;;0.52;0.52;;;;;;;14.27;32.59;99635.34;4403665;32;33755;-66
2023/04/03 10:37:11;;;;;;;;;;;;;;;13.84;33.94;99636.56;4412100;32;35182;-62
2023/04/03 10:40:02;;;;;;;0.60;0.60;;;;;;;14.20;32.73;99630.53;4411632;32;33025;-61
2023/04/03 10:42:47;;;;;;;0.47;0.40;;;;;;;14.41;32.81;99629.53;4412219;32;33335;-62
2023/04/03 10:45:42;;;;;;;0.70;0.65;;;;;;;14.13;32.11;99629.41;4410027;32;34755;-62
2023/04/03 10:48:47;;;;;;;1.08;0.77;;;;;;;14.36;32.76;99626.44;4409938;32;33798;-62
2023/04/03 10:51:44;;;;;;;1.20;0.77;;;;;;;14.32;32.30;99623.19;4349779;32;34442;-62
2023/04/03 10:54:20;;;;;;;0.50;0.50;;;;;;;13.57;32.85;99613.00;4410591;32;33664;-63
2023/04/03 10:56:52;;;;;;;0.75;0.70;;;;;;;14.16;33.17;99625.59;4411535;32;33680;-64
2023/04/03 10:59:47;;;;;;;0.98;0.52;;;;;;;13.40;32.91;99619.87;4407890;32;33934;-61
2023/04/03 11:02:27;;;;;;;0.60;0.57;;;;;;;13.96;32.84;99612.09;4413004;32;35181;-61
2023/04/03 11:05:05;;;;;;;1.98;0.88;;;;;;;13.60;33.13;99623.47;4412873;32;33502;-61
2023/04/03 11:07:38;;;;;;;1.33;0.70;;;;;;;12.95;34.11;99617.50;4417407;32;33376;-62
2023/04/03 11:10:19;;;;;;;1.35;0.88;;;;;;;12.72;34.24;99624.88;4403549;32;33580;-62
2023/04/03 11:12:51;;;;;;;1.08;1.00;;;;;;;13.03;34.09;99621.25;4416117;32;35161;-61
2023/04/03 11:15:33;;;;;;;0.82;0.65;;;;;;;13.17;33.38;99622.72;4411011;32;33438;-62
2023/04/03 11:18:11;;;;;;;1.02;0.93;;;;;;;13.36;33.06;99616.59;4411712;32;33666;-61
2023/04/03 11:20:43;;;;;;;1.02;0.77;;;;;;;13.54;32.66;99618.63;4416972;32;33936;-62
2023/04/03 11:23:27;;;;;;;1.55;0.77;;;;;;;12.96;33.75;99621.88;4412272;32;33629;-61
2023/04/03 11:26:12;;;;;;;0.90;0.68;;;;;;;13.42;33.30;99613.37;4416016;32;35032;-61
2023/04/03 11:28:39;;;;;;;1.15;1.15;;;;;;;13.29;33.37;99607.41;4411322;32;33260;-62
2023/04/03 11:31:12;;;;;;;1.33;0.95;;;;;;;13.47;32.78;99605.75;4409772;32;35004;-65
2023/04/03 11:33:46;;;;;;;1.37;1.12;;;;;;;13.27;32.66;99607.50;4413572;32;33221;-64
2023/04/03 11:36:28;;;;;;;1.75;0.68;;;;;;;13.48;33.51;99603.91;4419900;32;33103;-63
2023/04/03 11:39:15;;;;;;;0.70;0.57;;;;;;;13.48;33.06;99594.03;4411943;32;32831;-63
2023/04/03 11:41:43;;;;;;;0.40;0.40;;;;;;;12.91;33.67;99597.28;4413523;32;34895;-63
2023/04/03 11:44:31;;;;;;;1.08;0.73;;;;;;;13.62;32.86;99592.78;4416490;32;34164;-64
2023/04/03 11:47:00;;;;;;;0.85;0.70;;;;;;;12.87;34.14;99602.03;4406943;32;34321;-62
2023/04/03 11:50:05;;;;;;;1.48;0.85;;;;;;;13.16;33.40;99596.84;4416065;32;35323;-64
2023/04/03 11:52:39;;;;;;;0.85;0.77;;;;;;;13.92;32.41;99597.22;4409778;32;34754;-62
2023/04/03 11:55:22;;;;;;;0.62;0.60;;;;;;;13.19;33.48;99598.38;4414193;32;34534;-64
2023/04/03 11:58:00;;;;;;;1.27;1.12;;;;;;;13.61;33.01;99592.91;4409501;32;33416;-61